Time;durP1;ratioP1;P1;durP2;ratioP2;P2;SDS_P1;SDS_P2;PMS_P1;PMS_P2;Temp;Humidity;BMP_temperature;BMP_pressure;BME280_temperature;BME280_humidity;BME280_pressure;Samples;Min_cycle;Max_cycle;Signal;HPM_P1;HPM_P2
2023/03/06 00:02:35;;;;;;;;;;;3.30;99.90;;;;;;8381747;28;19924;-70
2023/03/06 00:06:37;;;;;;;;;;;3.30;99.90;;;;;;8376428;28;19930;-70
2023/03/06 00:25:44;;;;;;;;;;;3.10;99.90;;;;;;8387006;28;19963;-70
2023/03/06 00:29:48;;;;;;;;;;;3.10;99.90;;;;;;8385455;28;19940;-70
2023/03/06 00:33:50;;;;;;;;;;;3.10;99.90;;;;;;8387715;28;20407;-69
2023/03/06 00:37:51;;;;;;;;;;;3.10;99.90;;;;;;8388240;28;19924;-69
2023/03/06 00:41:54;;;;;;;;;;;3.00;99.90;;;;;;8379138;28;19924;-69
2023/03/06 00:45:56;;;;;;;;;;;3.00;99.90;;;;;;8363304;28;19935;-69
2023/03/06 01:05:01;;;;;;;;;;;2.90;99.90;;;;;;8382297;28;19928;-70
2023/03/06 01:09:03;;;;;;;;;;;2.90;99.90;;;;;;8386312;28;19931;-70
2023/03/06 01:13:05;;;;;;;;;;;2.90;99.90;;;;;;8384645;28;20337;-70
2023/03/06 01:17:06;;;;;;;;;;;2.80;99.90;;;;;;8383609;28;20421;-70
2023/03/06 01:21:08;;;;;;;;;;;2.80;99.90;;;;;;8379067;28;19935;-70
2023/03/06 01:25:10;;;;;;;;;;;2.80;99.90;;;;;;8369994;28;19932;-70
2023/03/06 01:29:12;;;;;;;;;;;2.70;99.90;;;;;;8381019;28;20002;-70
2023/03/06 01:33:13;;;;;;;;;;;2.70;99.90;;;;;;8385423;28;20430;-70
2023/03/06 01:37:15;;;;;;;;;;;2.70;99.90;;;;;;8384424;28;19925;-70
2023/03/06 01:41:17;;;;;;;;;;;2.70;99.90;;;;;;8390681;28;20403;-70
2023/03/06 01:45:18;;;;;;;;;;;2.70;99.90;;;;;;8388550;28;20426;-69
2023/03/06 01:49:37;;;;;;;;;;;2.70;99.90;;;;;;8370508;28;20024;-70
2023/03/06 01:53:40;;;;;;;;;;;2.70;99.90;;;;;;8388809;28;20332;-70
2023/03/06 01:57:47;;;;;;;;;;;2.70;99.90;;;;;;8384261;28;19959;-69
2023/03/06 02:01:49;;;;;;;;;;;2.60;99.90;;;;;;8384303;28;20398;-69
2023/03/06 02:05:51;;;;;;;;;;;2.60;99.90;;;;;;8381104;28;19931;-70
2023/03/06 02:09:55;;;;;;;;;;;2.60;99.90;;;;;;8387972;28;20043;-70
2023/03/06 02:13:57;;;;;;;;;;;2.50;99.90;;;;;;8385355;28;20436;-70
2023/03/06 02:17:59;;;;;;;;;;;2.40;99.90;;;;;;8388160;28;20443;-70
2023/03/06 02:22:01;;;;;;;;;;;2.40;99.90;;;;;;8377588;28;20403;-70
2023/03/06 02:26:03;;;;;;;;;;;2.30;99.90;;;;;;8384873;28;20084;-70
2023/03/06 02:30:06;;;;;;;;;;;2.30;99.90;;;;;;8377227;28;19925;-70
2023/03/06 02:34:13;;;;;;;;;;;2.20;99.90;;;;;;8386772;28;20348;-70
2023/03/06 02:38:17;;;;;;;;;;;2.10;99.90;;;;;;8382591;28;19929;-69
2023/03/06 02:42:27;;;;;;;;;;;2.10;99.90;;;;;;8377627;28;20371;-69
2023/03/06 02:46:29;;;;;;;;;;;2.00;99.90;;;;;;8386772;28;19975;-70
2023/03/06 02:50:31;;;;;;;;;;;2.00;99.90;;;;;;8366153;28;20448;-69
2023/03/06 02:54:33;;;;;;;;;;;2.00;99.90;;;;;;8382135;28;19976;-69
2023/03/06 02:58:34;;;;;;;;;;;1.90;99.90;;;;;;8388298;28;19933;-70
2023/03/06 03:02:36;;;;;;;;;;;1.90;99.90;;;;;;8368862;28;20037;-69
2023/03/06 03:06:37;;;;;;;;;;;2.00;99.90;;;;;;8382844;28;19928;-69
2023/03/06 03:10:39;;;;;;;;;;;2.00;99.90;;;;;;8378714;28;20018;-69
2023/03/06 03:14:41;;;;;;;;;;;2.00;99.90;;;;;;8383162;28;19977;-70
2023/03/06 03:18:43;;;;;;;;;;;2.10;99.90;;;;;;8380243;28;19971;-69
2023/03/06 03:22:49;;;;;;;;;;;2.10;99.90;;;;;;8365782;28;19924;-70
2023/03/06 03:26:50;;;;;;;;;;;2.10;99.90;;;;;;8374976;28;20379;-70
2023/03/06 03:30:52;;;;;;;;;;;2.10;99.90;;;;;;8370654;28;20416;-70
2023/03/06 03:34:54;;;;;;;;;;;2.20;99.90;;;;;;8367432;28;19928;-70
2023/03/06 03:38:56;;;;;;;;;;;2.10;99.90;;;;;;8382548;28;19939;-70
2023/03/06 03:42:58;;;;;;;;;;;2.10;99.90;;;;;;8381726;28;19977;-70
2023/03/06 03:46:59;;;;;;;;;;;2.20;99.90;;;;;;8381167;28;20410;-70
2023/03/06 03:51:07;;;;;;;;;;;2.20;99.90;;;;;;8379857;28;20350;-70
2023/03/06 03:55:09;;;;;;;;;;;2.20;99.90;;;;;;8379704;28;19975;-69
2023/03/06 03:59:10;;;;;;;;;;;2.20;99.90;;;;;;8383157;28;21274;-70
2023/03/06 04:03:12;;;;;;;;;;;2.30;99.90;;;;;;8382638;28;19972;-70
2023/03/06 04:07:14;;;;;;;;;;;2.30;99.90;;;;;;8383376;28;19964;-70
2023/03/06 04:11:15;;;;;;;;;;;2.30;99.90;;;;;;8386206;28;19924;-70
2023/03/06 04:15:17;;;;;;;;;;;2.30;99.90;;;;;;8391242;28;20307;-69
2023/03/06 04:19:18;;;;;;;;;;;2.40;99.90;;;;;;8386163;28;19979;-69
2023/03/06 04:23:23;;;;;;;;;;;2.40;99.90;;;;;;8387689;28;20454;-69
2023/03/06 04:27:24;;;;;;;;;;;2.40;99.90;;;;;;8381235;28;19978;-69
2023/03/06 04:31:26;;;;;;;;;;;2.40;99.90;;;;;;8386703;28;19924;-69
2023/03/06 04:35:28;;;;;;;;;;;2.40;99.90;;;;;;8361405;28;19955;-70
2023/03/06 04:39:29;;;;;;;;;;;2.40;99.90;;;;;;8382565;28;19959;-70
2023/03/06 04:43:31;;;;;;;;;;;2.40;99.90;;;;;;8386182;28;20398;-69
2023/03/06 04:47:58;;;;;;;;;;;2.40;99.90;;;;;;8386755;28;19924;-69
2023/03/06 04:51:59;;;;;;;;;;;2.50;99.90;;;;;;8391569;28;19932;-69
2023/03/06 04:56:01;;;;;;;;;;;2.50;99.90;;;;;;8385872;28;19929;-69
2023/03/06 05:00:03;;;;;;;;;;;2.50;99.90;;;;;;8383380;28;19930;-69
2023/03/06 05:04:05;;;;;;;;;;;2.50;99.90;;;;;;8380260;28;20372;-70
2023/03/06 05:08:07;;;;;;;;;;;2.50;99.90;;;;;;8383072;28;20210;-70
2023/03/06 05:12:08;;;;;;;;;;;2.50;99.90;;;;;;8380352;28;19959;-70
2023/03/06 05:16:10;;;;;;;;;;;2.60;99.90;;;;;;8378630;28;20034;-69
2023/03/06 05:20:12;;;;;;;;;;;2.60;99.90;;;;;;8388029;28;19932;-69
2023/03/06 05:24:14;;;;;;;;;;;2.60;99.90;;;;;;8378667;28;19929;-69
2023/03/06 05:28:15;;;;;;;;;;;2.70;99.90;;;;;;8369833;28;20278;-69
2023/03/06 05:32:17;;;;;;;;;;;2.80;99.90;;;;;;8370480;28;20125;-69
2023/03/06 05:36:19;;;;;;;;;;;2.80;99.90;;;;;;8380869;28;19932;-70
2023/03/06 05:40:20;;;;;;;;;;;2.80;99.90;;;;;;8378746;28;19942;-70
2023/03/06 05:44:22;;;;;;;;;;;2.90;99.90;;;;;;8363633;28;19935;-70
2023/03/06 05:48:24;;;;;;;;;;;2.80;99.90;;;;;;8394987;28;19947;-70
2023/03/06 05:52:26;;;;;;;;;;;2.90;99.90;;;;;;8367906;28;19936;-70
2023/03/06 05:56:28;;;;;;;;;;;2.90;99.90;;;;;;8386971;28;19968;-70
2023/03/06 06:00:29;;;;;;;;;;;2.90;99.90;;;;;;8381973;28;19955;-70
2023/03/06 06:04:31;;;;;;;;;;;2.90;99.90;;;;;;8380295;28;20296;-70
2023/03/06 06:08:33;;;;;;;;;;;3.00;99.90;;;;;;8382781;28;20364;-70
2023/03/06 06:12:34;;;;;;;;;;;2.90;99.90;;;;;;8374913;28;19932;-70
2023/03/06 06:16:36;;;;;;;;;;;2.90;99.90;;;;;;8358888;28;19967;-70
2023/03/06 06:20:37;;;;;;;;;;;2.90;99.90;;;;;;8375583;28;20044;-70
2023/03/06 06:24:39;;;;;;;;;;;2.90;99.90;;;;;;8376270;28;20022;-70
2023/03/06 06:28:41;;;;;;;;;;;2.90;99.90;;;;;;8372165;28;19932;-70
2023/03/06 06:32:42;;;;;;;;;;;2.90;99.90;;;;;;8384415;28;20396;-70
2023/03/06 06:36:44;;;;;;;;;;;2.90;99.90;;;;;;8388195;28;19928;-70
2023/03/06 06:40:46;;;;;;;;;;;2.90;99.90;;;;;;8389823;28;19931;-70
2023/03/06 06:45:09;;;;;;;;;;;2.90;99.90;;;;;;8381829;28;19935;-70
2023/03/06 06:49:13;;;;;;;;;;;3.00;99.90;;;;;;8381909;28;19924;-70
2023/03/06 06:53:15;;;;;;;;;;;3.00;99.90;;;;;;8364118;28;19925;-70
2023/03/06 06:57:17;;;;;;;;;;;3.00;99.90;;;;;;8385065;28;20553;-70
2023/03/06 07:01:18;;;;;;;;;;;3.10;99.90;;;;;;8378386;28;20365;-70
2023/03/06 07:05:20;;;;;;;;;;;3.10;99.90;;;;;;8381953;28;19928;-70
2023/03/06 07:09:22;;;;;;;;;;;3.20;99.90;;;;;;8382366;28;19939;-70
2023/03/06 07:13:24;;;;;;;;;;;3.20;99.90;;;;;;8389897;28;20008;-70
2023/03/06 07:17:26;;;;;;;;;;;3.30;99.90;;;;;;8384335;28;19931;-70
2023/03/06 07:21:27;;;;;;;;;;;3.40;99.90;;;;;;8386337;28;19971;-70
2023/03/06 07:25:29;;;;;;;;;;;3.40;99.90;;;;;;8390478;28;19925;-70
2023/03/06 07:29:32;;;;;;;;;;;3.40;99.90;;;;;;8391377;28;20380;-70
2023/03/06 07:33:34;;;;;;;;;;;3.50;99.90;;;;;;8389270;28;20364;-70
2023/03/06 07:37:36;;;;;;;;;;;3.50;99.90;;;;;;8389115;28;19931;-70
2023/03/06 07:41:37;;;;;;;;;;;3.60;99.90;;;;;;8383995;28;19925;-70
2023/03/06 07:45:39;;;;;;;;;;;3.60;99.90;;;;;;8388654;28;19928;-70
2023/03/06 07:49:41;;;;;;;;;;;3.70;99.90;;;;;;8393228;28;20018;-70
2023/03/06 07:53:43;;;;;;;;;;;3.70;99.90;;;;;;8392789;28;19932;-70
2023/03/06 07:57:44;;;;;;;;;;;3.80;99.90;;;;;;8386608;28;19923;-70
2023/03/06 08:01:46;;;;;;;;;;;3.90;99.90;;;;;;8382664;28;20023;-70
2023/03/06 08:05:47;;;;;;;;;;;4.00;99.90;;;;;;8393845;28;19924;-70
2023/03/06 08:09:49;;;;;;;;;;;4.10;99.90;;;;;;8366124;28;19986;-70
2023/03/06 08:13:51;;;;;;;;;;;4.20;99.90;;;;;;8388413;28;19924;-70
2023/03/06 08:17:53;;;;;;;;;;;4.30;99.90;;;;;;8368355;28;19963;-70
2023/03/06 08:21:55;;;;;;;;;;;4.40;99.90;;;;;;8384415;28;19955;-70
2023/03/06 08:26:01;;;;;;;;;;;4.50;99.90;;;;;;8383880;28;19932;-70
2023/03/06 08:30:03;;;;;;;;;;;4.50;99.90;;;;;;8370433;28;20426;-70
2023/03/06 08:34:06;;;;;;;;;;;4.60;99.90;;;;;;8388062;28;19925;-70
2023/03/06 08:38:08;;;;;;;;;;;4.70;99.90;;;;;;8390819;28;20346;-70
2023/03/06 08:42:09;;;;;;;;;;;4.80;99.90;;;;;;8383058;28;20004;-70
2023/03/06 08:46:11;;;;;;;;;;;5.00;99.90;;;;;;8398334;28;19932;-70
2023/03/06 08:50:13;;;;;;;;;;;5.20;99.90;;;;;;8388956;28;20443;-70
2023/03/06 08:54:15;;;;;;;;;;;5.40;99.90;;;;;;8372830;28;19970;-70
2023/03/06 08:58:16;;;;;;;;;;;5.50;99.90;;;;;;8388935;28;19928;-70
2023/03/06 09:02:18;;;;;;;;;;;5.60;99.90;;;;;;8387011;28;19984;-70
2023/03/06 09:06:20;;;;;;;;;;;5.60;99.90;;;;;;8394962;28;19931;-70
2023/03/06 09:10:22;;;;;;;;;;;5.70;99.90;;;;;;8371067;28;19924;-70
2023/03/06 09:14:24;;;;;;;;;;;5.80;99.90;;;;;;8387927;28;19928;-70
2023/03/06 09:18:28;;;;;;;;;;;6.00;99.90;;;;;;8383738;28;19928;-70
2023/03/06 09:22:30;;;;;;;;;;;6.10;99.90;;;;;;8379714;28;19924;-70
2023/03/06 09:26:31;;;;;;;;;;;6.30;99.90;;;;;;8389464;28;19974;-70
2023/03/06 09:30:46;;;;;;;;;;;6.50;99.90;;;;;;8376111;28;19978;-70
2023/03/06 09:34:48;;;;;;;;;;;6.70;99.90;;;;;;8379051;28;19970;-70
2023/03/06 09:38:50;;;;;;;;;;;6.90;99.90;;;;;;8360947;28;19947;-70
2023/03/06 09:42:51;;;;;;;;;;;7.00;99.90;;;;;;8376067;28;19983;-70
2023/03/06 09:47:11;;;;;;;;;;;7.10;99.90;;;;;;8384170;28;19993;-70
2023/03/06 09:51:15;;;;;;;;;;;7.30;99.90;;;;;;8378203;28;19924;-70
2023/03/06 09:55:19;;;;;;;;;;;7.50;99.90;;;;;;8389028;28;20031;-70
2023/03/06 09:59:23;;;;;;;;;;;7.60;99.90;;;;;;8381084;28;19971;-70
2023/03/06 10:03:43;;;;;;;;;;;7.70;99.90;;;;;;8383341;28;20016;-70
2023/03/06 10:07:49;;;;;;;;;;;7.90;99.90;;;;;;8384570;28;20294;-70
2023/03/06 10:11:50;;;;;;;;;;;8.10;99.90;;;;;;8387917;28;19931;-70
2023/03/06 10:15:59;;;;;;;;;;;8.30;99.90;;;;;;8380004;28;19928;-70
2023/03/06 10:20:05;;;;;;;;;;;8.50;99.90;;;;;;8383630;28;19928;-70
2023/03/06 10:24:25;;;;;;;;;;;8.70;99.90;;;;;;8386088;28;19924;-70
2023/03/06 10:28:33;;;;;;;;;;;8.80;99.90;;;;;;8377708;28;19959;-70
2023/03/06 10:32:46;;;;;;;;;;;8.90;99.90;;;;;;8387378;28;19925;-70
2023/03/06 10:36:49;;;;;;;;;;;9.00;99.90;;;;;;8376817;28;19925;-70
2023/03/06 10:41:04;;;;;;;;;;;9.00;99.90;;;;;;8379356;28;19924;-70
2023/03/06 10:45:10;;;;;;;;;;;9.00;99.90;;;;;;8377200;28;19940;-70
2023/03/06 10:49:22;;;;;;;;;;;8.80;99.90;;;;;;8356070;28;19973;-70
2023/03/06 10:53:25;;;;;;;;;;;8.50;99.90;;;;;;8375579;28;20023;-70
2023/03/06 10:57:28;;;;;;;;;;;8.40;99.90;;;;;;8381818;28;19931;-70
2023/03/06 11:01:30;;;;;;;;;;;8.50;99.90;;;;;;8373589;28;19924;-70
2023/03/06 11:05:32;;;;;;;;;;;8.70;99.90;;;;;;8361369;28;19955;-70
2023/03/06 11:09:33;;;;;;;;;;;8.70;99.90;;;;;;8391060;28;20015;-70
2023/03/06 11:13:36;;;;;;;;;;;8.80;99.90;;;;;;8380823;28;19971;-70
2023/03/06 11:17:49;;;;;;;;;;;9.00;99.90;;;;;;8379000;28;19924;-70
2023/03/06 11:22:01;;;;;;;;;;;9.60;99.90;;;;;;8378999;28;19924;-70
2023/03/06 11:26:15;;;;;;;;;;;10.00;99.90;;;;;;8384110;28;19931;-70
2023/03/06 11:30:22;;;;;;;;;;;10.40;99.90;;;;;;8387597;28;20406;-70
2023/03/06 11:34:39;;;;;;;;;;;10.20;99.90;;;;;;8366036;28;19925;-70
2023/03/06 11:38:47;;;;;;;;;;;9.70;99.90;;;;;;8383997;28;19935;-70
2023/03/06 11:42:55;;;;;;;;;;;9.20;99.90;;;;;;8358111;28;19932;-70
2023/03/06 11:47:02;;;;;;;;;;;8.90;99.90;;;;;;8359375;28;19929;-70
2023/03/06 11:51:16;;;;;;;;;;;8.70;99.90;;;;;;8358656;28;20268;-70
2023/03/06 11:55:26;;;;;;;;;;;8.60;99.90;;;;;;8358864;28;19929;-70
2023/03/06 11:59:37;;;;;;;;;;;8.60;99.90;;;;;;8356934;28;20366;-70
2023/03/06 12:03:57;;;;;;;;;;;8.50;99.90;;;;;;8351030;28;19932;-70
2023/03/06 12:08:18;;;;;;;;;;;8.40;99.90;;;;;;8361727;28;19979;-70
2023/03/06 12:12:30;;;;;;;;;;;8.20;99.90;;;;;;8362191;28;19928;-70
2023/03/06 12:16:50;;;;;;;;;;;8.50;99.90;;;;;;8365860;28;19971;-70
2023/03/06 12:20:52;;;;;;;;;;;8.80;99.90;;;;;;8365463;28;19924;-70
2023/03/06 12:25:03;;;;;;;;;;;8.90;99.90;;;;;;8364143;28;19932;-70
2023/03/06 12:29:11;;;;;;;;;;;9.20;99.90;;;;;;8359640;28;20411;-70
2023/03/06 12:33:27;;;;;;;;;;;9.20;99.90;;;;;;8376580;28;20260;-70
2023/03/06 12:37:48;;;;;;;;;;;9.00;99.90;;;;;;8361513;28;20281;-70
2023/03/06 12:41:52;;;;;;;;;;;9.10;99.90;;;;;;8357275;28;19939;-70
2023/03/06 12:46:02;;;;;;;;;;;9.10;99.90;;;;;;8379156;28;24543;-70
2023/03/06 12:50:12;;;;;;;;;;;8.90;99.90;;;;;;8368641;28;19970;-70
2023/03/06 12:54:13;;;;;;;;;;;8.90;99.90;;;;;;8370288;28;19986;-70
2023/03/06 12:58:30;;;;;;;;;;;8.80;99.90;;;;;;8374396;28;19977;-70
2023/03/06 13:02:47;;;;;;;;;;;8.70;99.90;;;;;;8367284;28;19925;-70
2023/03/06 13:06:49;;;;;;;;;;;8.50;99.90;;;;;;8360140;28;19986;-70
2023/03/06 13:11:10;;;;;;;;;;;8.30;99.90;;;;;;8368130;28;20022;-70
2023/03/06 13:15:30;;;;;;;;;;;8.20;99.90;;;;;;8363412;28;20015;-71
2023/03/06 13:19:32;;;;;;;;;;;8.10;99.90;;;;;;8363273;28;20011;-70
2023/03/06 13:23:34;;;;;;;;;;;8.00;99.90;;;;;;8360297;28;19947;-70
2023/03/06 13:27:58;;;;;;;;;;;8.10;99.90;;;;;;8356916;28;19928;-70
2023/03/06 13:31:59;;;;;;;;;;;8.20;99.90;;;;;;8357283;28;20384;-70
2023/03/06 13:36:19;;;;;;;;;;;8.20;99.90;;;;;;8354796;28;20262;-70
2023/03/06 13:40:27;;;;;;;;;;;8.10;99.90;;;;;;8373263;28;19964;-70
2023/03/06 13:44:29;;;;;;;;;;;8.00;99.90;;;;;;8384630;28;19934;-70
2023/03/06 13:48:34;;;;;;;;;;;8.00;99.90;;;;;;8357856;28;20007;-69
2023/03/06 13:52:54;;;;;;;;;;;8.00;99.90;;;;;;8367828;28;20316;-70
2023/03/06 13:56:58;;;;;;;;;;;7.90;99.90;;;;;;8372296;28;20047;-70
2023/03/06 14:01:06;;;;;;;;;;;7.90;99.90;;;;;;8385772;28;20023;-70
2023/03/06 14:05:13;;;;;;;;;;;7.90;99.90;;;;;;8381301;28;19930;-70
2023/03/06 14:09:20;;;;;;;;;;;8.00;99.90;;;;;;8368318;28;19928;-70
2023/03/06 14:13:23;;;;;;;;;;;8.00;99.90;;;;;;8364482;28;19931;-69
2023/03/06 14:17:29;;;;;;;;;;;8.00;99.90;;;;;;8360386;28;20376;-70
2023/03/06 14:21:40;;;;;;;;;;;8.00;99.90;;;;;;8342544;28;19928;-70
2023/03/06 14:25:44;;;;;;;;;;;8.00;99.90;;;;;;8360963;28;19925;-70
2023/03/06 14:45:02;;;;;;;;;;;7.80;99.90;;;;;;8360761;28;20647;-70
2023/03/06 14:49:07;;;;;;;;;;;7.70;99.90;;;;;;8366941;28;19929;-70
2023/03/06 14:53:21;;;;;;;;;;;7.60;99.90;;;;;;8360316;28;19979;-70
2023/03/06 14:57:23;;;;;;;;;;;7.50;99.90;;;;;;8356432;28;20325;-70
2023/03/06 15:01:30;;;;;;;;;;;7.50;99.90;;;;;;8360057;28;20383;-70
2023/03/06 15:05:32;;;;;;;;;;;7.50;99.90;;;;;;8368355;28;19935;-69
2023/03/06 15:09:35;;;;;;;;;;;7.40;99.90;;;;;;8359362;28;19971;-69
2023/03/06 15:13:37;;;;;;;;;;;7.40;99.90;;;;;;8357138;28;20098;-70
2023/03/06 15:17:43;;;;;;;;;;;7.30;99.90;;;;;;8360250;28;20364;-70
2023/03/06 15:21:49;;;;;;;;;;;7.20;99.90;;;;;;8355984;28;20299;-70
2023/03/06 15:25:56;;;;;;;;;;;7.20;99.90;;;;;;8360740;28;19932;-70
2023/03/06 15:30:16;;;;;;;;;;;7.20;99.90;;;;;;8358702;28;19933;-70
2023/03/06 15:34:22;;;;;;;;;;;7.10;99.90;;;;;;8357187;28;19955;-70
2023/03/06 15:38:45;;;;;;;;;;;6.90;99.90;;;;;;8358941;28;20388;-70
2023/03/06 15:42:48;;;;;;;;;;;6.80;99.90;;;;;;8355364;28;20010;-70
2023/03/06 15:46:50;;;;;;;;;;;6.70;99.90;;;;;;8357661;28;20370;-70
2023/03/06 15:51:00;;;;;;;;;;;6.60;99.90;;;;;;8358206;28;19986;-70
2023/03/06 15:55:01;;;;;;;;;;;6.30;99.90;;;;;;8374670;28;19932;-70
2023/03/06 15:59:04;;;;;;;;;;;6.20;99.90;;;;;;8367476;28;20011;-70
2023/03/06 16:03:08;;;;;;;;;;;5.90;99.90;;;;;;8367093;28;20300;-70
2023/03/06 16:07:10;;;;;;;;;;;5.80;99.90;;;;;;8365915;28;20016;-70
2023/03/06 16:11:23;;;;;;;;;;;5.60;99.90;;;;;;8361598;28;19925;-70
2023/03/06 16:15:32;;;;;;;;;;;5.50;99.90;;;;;;8362065;28;19925;-70
2023/03/06 16:19:34;;;;;;;;;;;5.30;99.90;;;;;;8359762;28;19935;-70
2023/03/06 16:23:37;;;;;;;;;;;5.20;99.90;;;;;;8364954;28;20320;-70
2023/03/06 16:27:40;;;;;;;;;;;5.20;99.90;;;;;;8361919;28;19932;-70
2023/03/06 16:31:42;;;;;;;;;;;5.20;99.90;;;;;;8360634;28;21529;-70
2023/03/06 16:35:46;;;;;;;;;;;5.10;99.90;;;;;;8360742;28;19931;-70
2023/03/06 16:54:59;;;;;;;;;;;4.80;99.90;;;;;;8362523;28;19923;-69
2023/03/06 16:59:01;;;;;;;;;;;4.70;99.90;;;;;;8353362;28;19999;-69
2023/03/06 17:03:02;;;;;;;;;;;4.70;99.90;;;;;;8364920;28;19972;-69
2023/03/06 17:07:04;;;;;;;;;;;4.70;99.90;;;;;;8360290;28;20359;-70
2023/03/06 17:11:06;;;;;;;;;;;4.70;99.90;;;;;;8373690;28;19967;-70
2023/03/06 17:30:20;;;;;;;;;;;4.70;99.90;;;;;;8362608;28;19978;-70
2023/03/06 17:34:22;;;;;;;;;;;4.60;99.90;;;;;;8364496;28;19925;-70
2023/03/06 17:38:25;;;;;;;;;;;4.60;99.90;;;;;;8371275;28;20009;-69
2023/03/06 17:42:27;;;;;;;;;;;4.60;99.90;;;;;;8357412;28;20035;-69
2023/03/06 17:46:30;;;;;;;;;;;4.70;99.90;;;;;;8360609;28;20296;-69
2023/03/06 17:50:32;;;;;;;;;;;4.70;99.90;;;;;;8364465;28;19929;-70
2023/03/06 17:54:34;;;;;;;;;;;4.70;99.90;;;;;;8370474;28;20024;-69
2023/03/06 17:58:36;;;;;;;;;;;4.70;99.90;;;;;;8344167;28;19928;-69
2023/03/06 18:02:38;;;;;;;;;;;4.60;99.90;;;;;;8368995;28;19931;-69
2023/03/06 18:06:39;;;;;;;;;;;4.60;99.90;;;;;;8373096;28;19932;-69
2023/03/06 18:10:42;;;;;;;;;;;4.50;99.90;;;;;;8352645;28;19929;-69
2023/03/06 18:14:44;;;;;;;;;;;4.40;99.90;;;;;;8357721;28;19982;-70
2023/03/06 18:18:45;;;;;;;;;;;4.30;99.90;;;;;;8360926;28;20790;-70
2023/03/06 18:22:47;;;;;;;;;;;4.30;99.90;;;;;;8367155;28;19950;-69
2023/03/06 18:26:49;;;;;;;;;;;4.30;99.90;;;;;;8361154;28;19924;-70
2023/03/06 18:30:50;;;;;;;;;;;4.20;99.90;;;;;;8348318;28;19929;-70
2023/03/06 18:34:53;;;;;;;;;;;4.10;99.90;;;;;;8357525;28;19931;-70
2023/03/06 18:38:56;;;;;;;;;;;4.10;99.90;;;;;;8365266;28;20003;-69
2023/03/06 18:42:57;;;;;;;;;;;4.10;99.90;;;;;;8360451;28;20015;-70
2023/03/06 18:46:59;;;;;;;;;;;4.10;99.90;;;;;;8355361;28;19924;-69
2023/03/06 18:51:05;;;;;;;;;;;4.10;99.90;;;;;;8360391;28;19932;-70
2023/03/06 18:55:07;;;;;;;;;;;4.00;99.90;;;;;;8356993;28;19932;-70
2023/03/06 18:59:11;;;;;;;;;;;4.00;99.90;;;;;;8343815;28;19933;-70
2023/03/06 19:03:13;;;;;;;;;;;3.90;99.90;;;;;;8354099;28;19929;-70
2023/03/06 19:07:15;;;;;;;;;;;3.90;99.90;;;;;;8353253;28;20554;-70
2023/03/06 19:11:17;;;;;;;;;;;3.90;99.90;;;;;;8317950;28;20384;-70
2023/03/06 19:15:18;;;;;;;;;;;3.90;99.90;;;;;;8327027;28;19937;-70
2023/03/06 19:19:25;;;;;;;;;;;3.80;99.90;;;;;;8324473;28;19976;-70
2023/03/06 19:23:26;;;;;;;;;;;3.80;99.90;;;;;;8325943;28;19929;-70
2023/03/06 19:27:28;;;;;;;;;;;3.80;99.90;;;;;;8318154;28;20044;-70
2023/03/06 19:31:30;;;;;;;;;;;3.80;99.90;;;;;;8340224;28;21458;-70
2023/03/06 19:35:33;;;;;;;;;;;3.80;99.90;;;;;;8319138;28;19936;-70
2023/03/06 19:39:35;;;;;;;;;;;3.80;99.90;;;;;;8324206;28;20375;-70
2023/03/06 19:43:37;;;;;;;;;;;3.80;99.90;;;;;;8331726;28;20360;-70
2023/03/06 19:47:38;;;;;;;;;;;3.80;99.90;;;;;;8322846;28;20450;-69
2023/03/06 19:51:40;;;;;;;;;;;3.80;99.90;;;;;;8323804;28;20452;-70
2023/03/06 19:55:42;;;;;;;;;;;3.80;99.90;;;;;;8323130;28;19995;-70
2023/03/06 19:59:47;;;;;;;;;;;3.80;99.90;;;;;;8326591;28;19932;-70
2023/03/06 20:03:52;;;;;;;;;;;3.80;99.90;;;;;;8323615;28;19929;-70
2023/03/06 20:07:53;;;;;;;;;;;3.80;99.90;;;;;;8345229;28;20311;-70
2023/03/06 20:11:55;;;;;;;;;;;3.80;99.90;;;;;;8360044;28;20363;-70
2023/03/06 20:16:00;;;;;;;;;;;3.80;99.90;;;;;;8378880;28;19974;-70
2023/03/06 20:20:02;;;;;;;;;;;3.80;99.90;;;;;;8368469;28;19939;-70
2023/03/06 20:24:04;;;;;;;;;;;3.90;99.90;;;;;;8356966;28;20380;-70
2023/03/06 20:28:06;;;;;;;;;;;3.90;99.90;;;;;;8375826;28;20269;-70
2023/03/06 20:32:07;;;;;;;;;;;4.00;99.90;;;;;;8356835;28;19999;-70
2023/03/06 20:36:16;;;;;;;;;;;4.00;99.90;;;;;;8367783;28;19961;-70
2023/03/06 20:40:18;;;;;;;;;;;4.00;99.90;;;;;;8371910;28;20012;-70
2023/03/06 20:44:20;;;;;;;;;;;4.10;99.90;;;;;;8368516;28;20404;-69
2023/03/06 20:48:21;;;;;;;;;;;4.10;99.90;;;;;;8368346;28;20043;-70
2023/03/06 20:52:23;;;;;;;;;;;4.20;99.90;;;;;;8355805;28;19940;-70
2023/03/06 20:56:26;;;;;;;;;;;4.20;99.90;;;;;;8358760;28;20365;-69
2023/03/06 21:10:40;;;;;;;;;;;4.30;99.90;;;;;;8327056;28;20309;-70
2023/03/06 21:14:42;;;;;;;;;;;4.30;99.90;;;;;;8324076;28;19933;-70
2023/03/06 21:18:44;;;;;;;;;;;4.30;99.90;;;;;;8328848;28;19964;-70
2023/03/06 21:22:46;;;;;;;;;;;4.40;99.90;;;;;;8324238;28;19929;-70
2023/03/06 21:26:49;;;;;;;;;;;4.40;99.90;;;;;;8329339;28;19925;-69
2023/03/06 21:30:51;;;;;;;;;;;4.40;99.90;;;;;;8323300;28;20392;-69
2023/03/06 21:34:53;;;;;;;;;;;4.50;99.90;;;;;;8323606;28;19964;-69
2023/03/06 21:38:54;;;;;;;;;;;4.60;99.90;;;;;;8324670;28;19929;-70
2023/03/06 21:42:56;;;;;;;;;;;4.60;99.90;;;;;;8326391;28;20357;-70
2023/03/06 21:46:57;;;;;;;;;;;4.70;99.90;;;;;;8323938;28;19970;-69
2023/03/06 21:51:10;;;;;;;;;;;4.80;99.90;;;;;;8320267;28;19925;-70
2023/03/06 21:55:12;;;;;;;;;;;4.80;99.90;;;;;;8324511;28;19925;-70
2023/03/06 21:59:13;;;;;;;;;;;4.80;99.90;;;;;;8333035;28;20049;-69
2023/03/06 22:03:15;;;;;;;;;;;4.90;99.90;;;;;;8337678;28;20028;-70
2023/03/06 22:07:20;;;;;;;;;;;4.90;99.90;;;;;;8355385;28;19969;-70
2023/03/06 22:11:24;;;;;;;;;;;4.90;99.90;;;;;;8368633;28;20205;-69
2023/03/06 22:15:25;;;;;;;;;;;4.90;99.90;;;;;;8389495;28;19929;-70
2023/03/06 22:19:27;;;;;;;;;;;4.90;99.90;;;;;;8388275;28;20398;-69
2023/03/06 22:23:29;;;;;;;;;;;4.90;99.90;;;;;;8380786;28;19929;-69
2023/03/06 22:27:30;;;;;;;;;;;4.90;99.90;;;;;;8383383;28;20012;-69
2023/03/06 22:31:32;;;;;;;;;;;4.90;99.90;;;;;;8387826;28;20018;-69
2023/03/06 22:35:34;;;;;;;;;;;4.90;99.90;;;;;;8389229;28;19936;-70
2023/03/06 22:39:36;;;;;;;;;;;4.80;99.90;;;;;;8382915;28;19971;-69
2023/03/06 22:43:37;;;;;;;;;;;4.80;99.90;;;;;;8379239;28;19928;-69
2023/03/06 22:47:39;;;;;;;;;;;4.80;99.90;;;;;;8393145;28;19925;-69
2023/03/06 22:51:40;;;;;;;;;;;4.80;99.90;;;;;;8366367;28;19935;-69
2023/03/06 22:55:42;;;;;;;;;;;4.80;99.90;;;;;;8375857;28;19932;-69
2023/03/06 22:59:44;;;;;;;;;;;4.80;99.90;;;;;;8393778;28;19932;-69
2023/03/06 23:03:46;;;;;;;;;;;4.80;99.90;;;;;;8380265;28;20026;-69
2023/03/06 23:07:48;;;;;;;;;;;4.80;99.90;;;;;;8367815;28;19928;-69
2023/03/06 23:11:50;;;;;;;;;;;4.90;99.90;;;;;;8386505;28;19956;-69
2023/03/06 23:15:52;;;;;;;;;;;4.90;99.90;;;;;;8372155;28;19924;-69
2023/03/06 23:19:53;;;;;;;;;;;4.90;99.90;;;;;;8384712;28;19935;-69
2023/03/06 23:23:55;;;;;;;;;;;4.90;99.90;;;;;;8385121;28;20452;-69
2023/03/06 23:27:57;;;;;;;;;;;4.90;99.90;;;;;;8387595;28;20336;-69
2023/03/06 23:31:58;;;;;;;;;;;4.90;99.90;;;;;;8374814;28;19924;-69
2023/03/06 23:36:01;;;;;;;;;;;4.90;99.90;;;;;;8371847;28;19959;-69
2023/03/06 23:40:05;;;;;;;;;;;4.90;99.90;;;;;;8379247;28;20007;-69
2023/03/06 23:44:07;;;;;;;;;;;4.90;99.90;;;;;;8386474;28;19979;-69
2023/03/06 23:48:09;;;;;;;;;;;4.80;99.90;;;;;;8378834;28;19931;-69
2023/03/06 23:52:11;;;;;;;;;;;4.80;99.90;;;;;;8389869;28;19925;-69
2023/03/06 23:56:13;;;;;;;;;;;4.80;99.90;;;;;;8386909;28;19924;-69
